sensor_id;sensor_type;location;lat;lon;timestamp;pressure;altitude;pressure_sealevel;temperature;humidity
4834;BME280;12895;51.064;7.028;2023-06-10T00:02:07;100497.31;;;22.13;49.33
4834;BME280;12895;51.064;7.028;2023-06-10T00:04:55;100488.31;;;22.07;49.56
4834;BME280;12895;51.064;7.028;2023-06-10T00:07:41;100488.66;;;21.88;51.14
4834;BME280;12895;51.064;7.028;2023-06-10T00:10:26;100488.28;;;21.84;50.08
4834;BME280;12895;51.064;7.028;2023-06-10T00:13:12;100483.41;;;21.85;50.49
4834;BME280;12895;51.064;7.028;2023-06-10T00:15:58;100479.59;;;21.67;50.95
4834;BME280;12895;51.064;7.028;2023-06-10T00:18:43;100488.59;;;21.66;50.93
4834;BME280;12895;51.064;7.028;2023-06-10T00:21:29;100487.50;;;21.76;50.63
4834;BME280;12895;51.064;7.028;2023-06-10T00:24:21;100474.38;;;21.71;50.65
4834;BME280;12895;51.064;7.028;2023-06-10T00:27:06;100485.25;;;21.75;50.56
4834;BME280;12895;51.064;7.028;2023-06-10T00:29:53;100489.84;;;21.57;50.93
4834;BME280;12895;51.064;7.028;2023-06-10T00:32:38;100476.53;;;21.58;50.83
4834;BME280;12895;51.064;7.028;2023-06-10T00:35:23;100485.53;;;21.64;50.65
4834;BME280;12895;51.064;7.028;2023-06-10T00:38:10;100481.38;;;21.57;50.77
4834;BME280;12895;51.064;7.028;2023-06-10T00:40:55;100491.13;;;21.49;51.04
4834;BME280;12895;51.064;7.028;2023-06-10T00:43:42;100488.81;;;21.40;51.58
4834;BME280;12895;51.064;7.028;2023-06-10T00:46:29;100487.72;;;21.43;51.35
4834;BME280;12895;51.064;7.028;2023-06-10T00:49:16;100489.94;;;21.37;52.06
4834;BME280;12895;51.064;7.028;2023-06-10T00:52:02;100486.19;;;21.42;51.10
4834;BME280;12895;51.064;7.028;2023-06-10T00:54:49;100493.13;;;21.41;51.56
4834;BME280;12895;51.064;7.028;2023-06-10T00:57:36;100493.84;;;21.34;51.81
4834;BME280;12895;51.064;7.028;2023-06-10T01:00:22;100493.31;;;21.35;51.59
4834;BME280;12895;51.064;7.028;2023-06-10T01:03:09;100494.00;;;21.28;52.17
4834;BME280;12895;51.064;7.028;2023-06-10T01:06:01;100501.47;;;21.26;51.59
4834;BME280;12895;51.064;7.028;2023-06-10T01:08:54;100499.59;;;21.21;52.22
4834;BME280;12895;51.064;7.028;2023-06-10T01:11:45;100497.91;;;21.18;51.99
4834;BME280;12895;51.064;7.028;2023-06-10T01:14:32;100504.41;;;21.13;53.29
4834;BME280;12895;51.064;7.028;2023-06-10T01:17:17;100505.53;;;21.10;51.98
4834;BME280;12895;51.064;7.028;2023-06-10T01:20:06;100496.50;;;21.04;52.40
4834;BME280;12895;51.064;7.028;2023-06-10T01:22:57;100502.81;;;20.97;52.62
4834;BME280;12895;51.064;7.028;2023-06-10T01:25:46;100499.50;;;21.06;52.32
4834;BME280;12895;51.064;7.028;2023-06-10T01:28:37;100503.41;;;21.03;52.56
4834;BME280;12895;51.064;7.028;2023-06-10T01:31:30;100496.84;;;21.00;52.42
4834;BME280;12895;51.064;7.028;2023-06-10T01:34:18;100495.38;;;21.07;52.24
4834;BME280;12895;51.064;7.028;2023-06-10T01:37:07;100498.28;;;20.94;52.92
4834;BME280;12895;51.064;7.028;2023-06-10T01:39:58;100508.72;;;20.86;53.04
4834;BME280;12895;51.064;7.028;2023-06-10T01:42:44;100491.13;;;20.85;52.52
4834;BME280;12895;51.064;7.028;2023-06-10T01:45:30;100503.09;;;20.86;53.41
4834;BME280;12895;51.064;7.028;2023-06-10T01:48:16;100501.53;;;20.77;53.84
4834;BME280;12895;51.064;7.028;2023-06-10T01:51:02;100496.25;;;20.74;53.56
4834;BME280;12895;51.064;7.028;2023-06-10T01:53:47;100507.09;;;20.70;53.81
4834;BME280;12895;51.064;7.028;2023-06-10T01:56:35;100507.09;;;20.70;53.19
4834;BME280;12895;51.064;7.028;2023-06-10T01:59:20;100510.59;;;20.63;53.54
4834;BME280;12895;51.064;7.028;2023-06-10T02:02:06;100513.75;;;20.59;53.59
4834;BME280;12895;51.064;7.028;2023-06-10T02:04:51;100516.78;;;20.41;54.59
4834;BME280;12895;51.064;7.028;2023-06-10T02:07:38;100519.34;;;20.18;55.28
4834;BME280;12895;51.064;7.028;2023-06-10T02:10:24;100518.91;;;20.14;55.38
4834;BME280;12895;51.064;7.028;2023-06-10T02:13:10;100522.97;;;20.06;56.12
4834;BME280;12895;51.064;7.028;2023-06-10T02:15:57;100515.75;;;19.97;56.47
4834;BME280;12895;51.064;7.028;2023-06-10T02:18:47;100516.47;;;19.98;56.56
4834;BME280;12895;51.064;7.028;2023-06-10T02:21:32;100527.28;;;19.94;57.28
4834;BME280;12895;51.064;7.028;2023-06-10T02:24:18;100532.25;;;19.88;56.68
4834;BME280;12895;51.064;7.028;2023-06-10T02:27:05;100536.56;;;19.89;57.66
4834;BME280;12895;51.064;7.028;2023-06-10T02:29:53;100538.00;;;19.82;58.80
4834;BME280;12895;51.064;7.028;2023-06-10T02:32:39;100535.97;;;19.70;58.07
4834;BME280;12895;51.064;7.028;2023-06-10T02:35:27;100532.09;;;19.60;58.12
4834;BME280;12895;51.064;7.028;2023-06-10T02:38:13;100534.91;;;19.60;59.18
4834;BME280;12895;51.064;7.028;2023-06-10T02:40:59;100541.63;;;19.44;59.88
4834;BME280;12895;51.064;7.028;2023-06-10T02:43:44;100539.25;;;19.48;58.67
4834;BME280;12895;51.064;7.028;2023-06-10T02:46:31;100540.97;;;19.38;59.63
4834;BME280;12895;51.064;7.028;2023-06-10T02:49:17;100542.50;;;19.26;58.82
4834;BME280;12895;51.064;7.028;2023-06-10T02:52:07;100540.56;;;19.34;58.93
4834;BME280;12895;51.064;7.028;2023-06-10T02:54:52;100546.38;;;19.36;59.70
4834;BME280;12895;51.064;7.028;2023-06-10T02:57:39;100544.31;;;19.24;59.03
4834;BME280;12895;51.064;7.028;2023-06-10T03:00:26;100543.63;;;19.18;60.06
4834;BME280;12895;51.064;7.028;2023-06-10T03:03:13;100536.84;;;19.13;58.98
4834;BME280;12895;51.064;7.028;2023-06-10T03:06:11;100539.88;;;19.15;59.61
4834;BME280;12895;51.064;7.028;2023-06-10T03:08:57;100535.91;;;19.11;60.37
4834;BME280;12895;51.064;7.028;2023-06-10T03:11:42;100534.03;;;19.13;60.05
4834;BME280;12895;51.064;7.028;2023-06-10T03:14:28;100537.28;;;19.04;61.26
4834;BME280;12895;51.064;7.028;2023-06-10T03:17:13;100532.31;;;18.97;60.91
4834;BME280;12895;51.064;7.028;2023-06-10T03:20:03;100541.88;;;18.89;61.44
4834;BME280;12895;51.064;7.028;2023-06-10T03:22:50;100543.28;;;18.82;61.41
4834;BME280;12895;51.064;7.028;2023-06-10T03:25:35;100547.69;;;18.78;60.46
4834;BME280;12895;51.064;7.028;2023-06-10T03:28:21;100551.03;;;18.76;60.70
4834;BME280;12895;51.064;7.028;2023-06-10T03:31:06;100548.31;;;18.71;61.92
4834;BME280;12895;51.064;7.028;2023-06-10T03:33:52;100559.28;;;18.69;62.56
4834;BME280;12895;51.064;7.028;2023-06-10T03:36:38;100555.28;;;18.64;62.53
4834;BME280;12895;51.064;7.028;2023-06-10T03:39:27;100551.19;;;18.65;61.76
4834;BME280;12895;51.064;7.028;2023-06-10T03:42:15;100560.47;;;18.60;63.76
4834;BME280;12895;51.064;7.028;2023-06-10T03:45:02;100563.69;;;18.64;62.37
4834;BME280;12895;51.064;7.028;2023-06-10T03:47:49;100559.50;;;18.71;63.04
4834;BME280;12895;51.064;7.028;2023-06-10T03:50:39;100562.81;;;18.56;62.19
4834;BME280;12895;51.064;7.028;2023-06-10T03:53:26;100561.34;;;18.68;62.64
4834;BME280;12895;51.064;7.028;2023-06-10T03:56:12;100564.16;;;18.68;62.49
4834;BME280;12895;51.064;7.028;2023-06-10T03:58:58;100565.44;;;18.67;63.12
4834;BME280;12895;51.064;7.028;2023-06-10T04:01:45;100565.75;;;18.64;62.54
4834;BME280;12895;51.064;7.028;2023-06-10T04:04:30;100565.84;;;18.58;63.16
4834;BME280;12895;51.064;7.028;2023-06-10T04:07:16;100562.41;;;18.65;62.65
4834;BME280;12895;51.064;7.028;2023-06-10T04:10:05;100567.78;;;18.63;62.73
4834;BME280;12895;51.064;7.028;2023-06-10T04:12:51;100570.16;;;18.59;62.89
4834;BME280;12895;51.064;7.028;2023-06-10T04:15:37;100575.44;;;18.63;63.81
4834;BME280;12895;51.064;7.028;2023-06-10T04:18:26;100576.66;;;18.67;63.21
4834;BME280;12895;51.064;7.028;2023-06-10T04:21:15;100572.56;;;18.68;63.20
4834;BME280;12895;51.064;7.028;2023-06-10T04:24:00;100577.38;;;18.68;62.44
4834;BME280;12895;51.064;7.028;2023-06-10T04:26:47;100576.88;;;18.82;62.27
4834;BME280;12895;51.064;7.028;2023-06-10T04:29:33;100583.25;;;18.83;62.83
4834;BME280;12895;51.064;7.028;2023-06-10T04:32:19;100578.44;;;18.96;62.33
4834;BME280;12895;51.064;7.028;2023-06-10T04:35:05;100587.56;;;18.97;62.63
4834;BME280;12895;51.064;7.028;2023-06-10T04:37:50;100589.84;;;18.98;62.31
4834;BME280;12895;51.064;7.028;2023-06-10T04:40:36;100596.34;;;19.06;63.21
4834;BME280;12895;51.064;7.028;2023-06-10T04:43:23;100590.50;;;19.04;61.94
4834;BME280;12895;51.064;7.028;2023-06-10T04:46:09;100581.66;;;19.13;62.32
4834;BME280;12895;51.064;7.028;2023-06-10T04:48:55;100587.19;;;19.19;61.79
4834;BME280;12895;51.064;7.028;2023-06-10T04:51:41;100581.28;;;19.22;62.94
4834;BME280;12895;51.064;7.028;2023-06-10T04:54:26;100582.78;;;19.23;63.84
4834;BME280;12895;51.064;7.028;2023-06-10T04:57:12;100587.13;;;19.37;62.40
4834;BME280;12895;51.064;7.028;2023-06-10T04:59:58;100586.56;;;19.52;61.67
4834;BME280;12895;51.064;7.028;2023-06-10T05:02:43;100582.16;;;19.56;60.66
4834;BME280;12895;51.064;7.028;2023-06-10T05:05:33;100598.34;;;19.63;60.81
4834;BME280;12895;51.064;7.028;2023-06-10T05:08:19;100595.06;;;19.72;62.11
4834;BME280;12895;51.064;7.028;2023-06-10T05:11:04;100588.41;;;19.75;62.27
4834;BME280;12895;51.064;7.028;2023-06-10T05:13:50;100591.81;;;19.81;61.48
4834;BME280;12895;51.064;7.028;2023-06-10T05:16:40;100588.38;;;19.88;61.24
4834;BME280;12895;51.064;7.028;2023-06-10T05:19:25;100589.84;;;20.02;61.54
4834;BME280;12895;51.064;7.028;2023-06-10T05:22:11;100588.78;;;20.05;62.02
4834;BME280;12895;51.064;7.028;2023-06-10T05:24:57;100598.25;;;20.15;60.21
4834;BME280;12895;51.064;7.028;2023-06-10T05:27:46;100596.84;;;20.21;58.74
4834;BME280;12895;51.064;7.028;2023-06-10T05:30:31;100594.34;;;20.31;56.85
4834;BME280;12895;51.064;7.028;2023-06-10T05:33:17;100595.16;;;20.39;56.04
4834;BME280;12895;51.064;7.028;2023-06-10T05:36:03;100596.28;;;20.56;53.71
4834;BME280;12895;51.064;7.028;2023-06-10T05:38:49;100593.94;;;20.68;52.52
4834;BME280;12895;51.064;7.028;2023-06-10T05:41:34;100595.88;;;20.73;53.56
4834;BME280;12895;51.064;7.028;2023-06-10T05:44:19;100598.72;;;20.80;54.21
4834;BME280;12895;51.064;7.028;2023-06-10T05:47:05;100597.31;;;20.87;52.81
4834;BME280;12895;51.064;7.028;2023-06-10T05:49:52;100600.94;;;20.95;50.73
4834;BME280;12895;51.064;7.028;2023-06-10T05:52:37;100604.78;;;21.05;50.84
4834;BME280;12895;51.064;7.028;2023-06-10T05:55:24;100596.97;;;21.11;50.52
4834;BME280;12895;51.064;7.028;2023-06-10T05:58:10;100597.78;;;21.19;50.92
4834;BME280;12895;51.064;7.028;2023-06-10T06:00:56;100608.72;;;21.30;49.90
4834;BME280;12895;51.064;7.028;2023-06-10T06:03:41;100606.91;;;21.40;49.51
4834;BME280;12895;51.064;7.028;2023-06-10T06:06:28;100601.59;;;21.57;49.47
4834;BME280;12895;51.064;7.028;2023-06-10T06:09:13;100597.31;;;21.63;48.17
4834;BME280;12895;51.064;7.028;2023-06-10T06:11:58;100604.50;;;21.72;48.97
4834;BME280;12895;51.064;7.028;2023-06-10T06:14:44;100606.00;;;21.73;47.84
4834;BME280;12895;51.064;7.028;2023-06-10T06:17:29;100602.28;;;21.78;48.81
4834;BME280;12895;51.064;7.028;2023-06-10T06:20:14;100601.25;;;21.96;47.00
4834;BME280;12895;51.064;7.028;2023-06-10T06:23:01;100607.25;;;22.00;47.44
4834;BME280;12895;51.064;7.028;2023-06-10T06:25:46;100611.38;;;21.99;48.37
4834;BME280;12895;51.064;7.028;2023-06-10T06:28:31;100613.69;;;22.08;48.33
4834;BME280;12895;51.064;7.028;2023-06-10T06:31:17;100614.47;;;22.16;47.60
4834;BME280;12895;51.064;7.028;2023-06-10T06:34:02;100605.50;;;22.25;47.59
4834;BME280;12895;51.064;7.028;2023-06-10T06:36:47;100613.59;;;22.36;46.83
4834;BME280;12895;51.064;7.028;2023-06-10T06:39:34;100614.91;;;22.35;47.14
4834;BME280;12895;51.064;7.028;2023-06-10T06:42:20;100612.28;;;22.37;47.49
4834;BME280;12895;51.064;7.028;2023-06-10T06:45:15;100621.19;;;22.56;46.01
4834;BME280;12895;51.064;7.028;2023-06-10T06:48:00;100615.34;;;22.68;45.91
4834;BME280;12895;51.064;7.028;2023-06-10T06:50:49;100617.63;;;22.63;47.54
4834;BME280;12895;51.064;7.028;2023-06-10T06:53:34;100618.00;;;22.67;47.81
4834;BME280;12895;51.064;7.028;2023-06-10T06:56:22;100618.34;;;22.63;48.05
4834;BME280;12895;51.064;7.028;2023-06-10T06:59:07;100628.13;;;22.69;47.21
4834;BME280;12895;51.064;7.028;2023-06-10T07:01:53;100626.25;;;22.79;47.40
4834;BME280;12895;51.064;7.028;2023-06-10T07:04:40;100627.03;;;22.95;45.93
4834;BME280;12895;51.064;7.028;2023-06-10T07:07:26;100619.53;;;22.97;46.35
4834;BME280;12895;51.064;7.028;2023-06-10T07:10:11;100615.78;;;23.02;47.26
4834;BME280;12895;51.064;7.028;2023-06-10T07:12:58;100623.09;;;23.05;47.51
4834;BME280;12895;51.064;7.028;2023-06-10T07:15:43;100624.41;;;23.12;47.40
4834;BME280;12895;51.064;7.028;2023-06-10T07:18:29;100621.78;;;23.36;46.84
4834;BME280;12895;51.064;7.028;2023-06-10T07:21:14;100625.16;;;23.42;45.42
4834;BME280;12895;51.064;7.028;2023-06-10T07:23:59;100624.22;;;23.47;45.97
4834;BME280;12895;51.064;7.028;2023-06-10T07:26:44;100627.03;;;23.55;47.28
4834;BME280;12895;51.064;7.028;2023-06-10T07:29:31;100626.25;;;23.69;46.91
4834;BME280;12895;51.064;7.028;2023-06-10T07:32:17;100621.69;;;23.81;46.93
4834;BME280;12895;51.064;7.028;2023-06-10T07:35:07;100620.91;;;23.96;44.78
4834;BME280;12895;51.064;7.028;2023-06-10T07:37:53;100621.66;;;23.96;45.51
4834;BME280;12895;51.064;7.028;2023-06-10T07:40:38;100619.38;;;24.02;46.47
4834;BME280;12895;51.064;7.028;2023-06-10T07:43:23;100609.19;;;24.07;43.94
4834;BME280;12895;51.064;7.028;2023-06-10T07:46:10;100615.34;;;24.20;44.14
4834;BME280;12895;51.064;7.028;2023-06-10T07:48:55;100624.44;;;24.43;45.78
4834;BME280;12895;51.064;7.028;2023-06-10T07:51:41;100625.16;;;24.51;42.84
4834;BME280;12895;51.064;7.028;2023-06-10T07:54:26;100611.59;;;24.57;43.55
4834;BME280;12895;51.064;7.028;2023-06-10T07:57:11;100622.56;;;24.78;43.17
4834;BME280;12895;51.064;7.028;2023-06-10T07:59:56;100622.31;;;24.83;43.40
4834;BME280;12895;51.064;7.028;2023-06-10T08:02:46;100626.47;;;24.82;44.28
4834;BME280;12895;51.064;7.028;2023-06-10T08:05:31;100620.50;;;24.78;44.33
4834;BME280;12895;51.064;7.028;2023-06-10T08:08:16;100612.66;;;24.94;43.46
4834;BME280;12895;51.064;7.028;2023-06-10T08:11:01;100620.72;;;24.97;43.83
4834;BME280;12895;51.064;7.028;2023-06-10T08:13:47;100625.44;;;25.19;42.40
4834;BME280;12895;51.064;7.028;2023-06-10T08:16:32;100612.84;;;25.37;41.71
4834;BME280;12895;51.064;7.028;2023-06-10T08:19:18;100624.94;;;25.38;42.12
4834;BME280;12895;51.064;7.028;2023-06-10T08:22:04;100619.28;;;25.38;41.66
4834;BME280;12895;51.064;7.028;2023-06-10T08:24:50;100620.00;;;25.38;41.87
4834;BME280;12895;51.064;7.028;2023-06-10T08:27:35;100622.34;;;25.32;42.89
4834;BME280;12895;51.064;7.028;2023-06-10T08:30:21;100624.25;;;25.30;42.41
4834;BME280;12895;51.064;7.028;2023-06-10T08:33:07;100627.56;;;25.36;43.55
4834;BME280;12895;51.064;7.028;2023-06-10T08:35:53;100624.44;;;25.49;42.50
4834;BME280;12895;51.064;7.028;2023-06-10T08:38:38;100618.69;;;25.56;41.28
4834;BME280;12895;51.064;7.028;2023-06-10T08:41:25;100623.28;;;25.85;40.58
4834;BME280;12895;51.064;7.028;2023-06-10T08:44:17;100622.16;;;25.88;41.52
4834;BME280;12895;51.064;7.028;2023-06-10T08:47:13;100615.41;;;26.01;41.94
4834;BME280;12895;51.064;7.028;2023-06-10T08:50:02;100610.03;;;26.22;41.05
4834;BME280;12895;51.064;7.028;2023-06-10T08:52:54;100615.81;;;26.41;41.17
4834;BME280;12895;51.064;7.028;2023-06-10T08:55:43;100604.50;;;26.24;41.88
4834;BME280;12895;51.064;7.028;2023-06-10T08:58:32;100609.78;;;26.37;40.27
4834;BME280;12895;51.064;7.028;2023-06-10T09:01:19;100611.13;;;26.53;40.81
4834;BME280;12895;51.064;7.028;2023-06-10T09:04:05;100608.63;;;26.40;40.00
4834;BME280;12895;51.064;7.028;2023-06-10T09:06:52;100612.56;;;26.71;39.66
4834;BME280;12895;51.064;7.028;2023-06-10T09:09:44;100609.28;;;26.74;39.79
4834;BME280;12895;51.064;7.028;2023-06-10T09:12:29;100611.41;;;26.83;39.91
4834;BME280;12895;51.064;7.028;2023-06-10T09:15:15;100605.63;;;26.91;40.03
4834;BME280;12895;51.064;7.028;2023-06-10T09:18:01;100604.69;;;26.79;40.91
4834;BME280;12895;51.064;7.028;2023-06-10T09:20:46;100608.59;;;26.93;39.40
4834;BME280;12895;51.064;7.028;2023-06-10T09:23:32;100604.97;;;26.83;39.79
4834;BME280;12895;51.064;7.028;2023-06-10T09:26:19;100598.44;;;26.90;40.39
4834;BME280;12895;51.064;7.028;2023-06-10T09:29:06;100602.38;;;27.04;40.30
4834;BME280;12895;51.064;7.028;2023-06-10T09:31:53;100596.19;;;27.34;39.58
4834;BME280;12895;51.064;7.028;2023-06-10T09:34:38;100601.13;;;27.33;39.68
4834;BME280;12895;51.064;7.028;2023-06-10T09:37:23;100598.19;;;27.50;39.38
4834;BME280;12895;51.064;7.028;2023-06-10T09:40:09;100599.06;;;27.72;37.74
4834;BME280;12895;51.064;7.028;2023-06-10T09:42:59;100593.84;;;27.59;39.42
4834;BME280;12895;51.064;7.028;2023-06-10T09:45:47;100596.97;;;27.63;40.47
4834;BME280;12895;51.064;7.028;2023-06-10T09:48:34;100600.31;;;27.78;39.44
4834;BME280;12895;51.064;7.028;2023-06-10T09:51:20;100593.69;;;28.14;36.84
4834;BME280;12895;51.064;7.028;2023-06-10T09:54:07;100592.91;;;28.42;37.26
4834;BME280;12895;51.064;7.028;2023-06-10T09:56:52;100594.69;;;28.47;37.02
4834;BME280;12895;51.064;7.028;2023-06-10T09:59:38;100596.31;;;28.50;33.58
4834;BME280;12895;51.064;7.028;2023-06-10T10:02:23;100590.22;;;28.25;34.27
4834;BME280;12895;51.064;7.028;2023-06-10T10:05:09;100596.69;;;28.06;34.89
4834;BME280;12895;51.064;7.028;2023-06-10T10:07:55;100594.00;;;27.99;35.35
4834;BME280;12895;51.064;7.028;2023-06-10T10:10:41;100594.75;;;27.90;37.27
4834;BME280;12895;51.064;7.028;2023-06-10T10:13:27;100593.09;;;27.96;33.88
4834;BME280;12895;51.064;7.028;2023-06-10T10:16:17;100588.75;;;28.24;31.00
4834;BME280;12895;51.064;7.028;2023-06-10T10:19:06;100590.34;;;28.46;30.41
4834;BME280;12895;51.064;7.028;2023-06-10T10:21:54;100590.69;;;28.31;31.92
4834;BME280;12895;51.064;7.028;2023-06-10T10:24:48;100591.69;;;28.45;30.52
4834;BME280;12895;51.064;7.028;2023-06-10T10:27:36;100586.34;;;28.39;30.56
4834;BME280;12895;51.064;7.028;2023-06-10T10:30:25;100592.16;;;28.22;31.39
4834;BME280;12895;51.064;7.028;2023-06-10T10:33:17;100590.25;;;28.06;31.79
4834;BME280;12895;51.064;7.028;2023-06-10T10:36:03;100584.25;;;28.21;32.72
4834;BME280;12895;51.064;7.028;2023-06-10T10:38:49;100587.44;;;28.65;32.21
4834;BME280;12895;51.064;7.028;2023-06-10T10:41:36;100584.19;;;28.99;31.32
4834;BME280;12895;51.064;7.028;2023-06-10T10:44:23;100584.19;;;29.19;32.40
4834;BME280;12895;51.064;7.028;2023-06-10T10:47:08;100584.94;;;29.41;32.13
4834;BME280;12895;51.064;7.028;2023-06-10T10:49:56;100586.94;;;29.59;30.46
4834;BME280;12895;51.064;7.028;2023-06-10T10:52:51;100579.88;;;29.60;30.61
4834;BME280;12895;51.064;7.028;2023-06-10T10:55:37;100577.41;;;29.87;28.62
4834;BME280;12895;51.064;7.028;2023-06-10T10:58:24;100577.69;;;29.70;30.29
4834;BME280;12895;51.064;7.028;2023-06-10T11:01:11;100575.91;;;29.44;31.21
4834;BME280;12895;51.064;7.028;2023-06-10T11:03:57;100580.69;;;29.72;30.12
4834;BME280;12895;51.064;7.028;2023-06-10T11:06:53;100570.75;;;29.73;28.92
4834;BME280;12895;51.064;7.028;2023-06-10T11:09:57;100566.19;;;30.01;29.56
4834;BME280;12895;51.064;7.028;2023-06-10T11:12:52;100565.84;;;30.18;29.85
4834;BME280;12895;51.064;7.028;2023-06-10T11:15:39;100564.16;;;30.24;29.04
4834;BME280;12895;51.064;7.028;2023-06-10T11:18:25;100564.16;;;30.36;30.46
4834;BME280;12895;51.064;7.028;2023-06-10T11:21:11;100565.16;;;30.29;30.00
4834;BME280;12895;51.064;7.028;2023-06-10T11:26:44;100569.34;;;30.28;30.02
4834;BME280;12895;51.064;7.028;2023-06-10T11:29:30;100573.59;;;30.38;29.66
4834;BME280;12895;51.064;7.028;2023-06-10T11:32:17;100569.75;;;30.01;30.30
4834;BME280;12895;51.064;7.028;2023-06-10T11:35:03;100563.06;;;29.97;31.15
4834;BME280;12895;51.064;7.028;2023-06-10T11:37:49;100566.53;;;29.95;31.70
4834;BME280;12895;51.064;7.028;2023-06-10T11:40:34;100573.44;;;29.92;32.01
4834;BME280;12895;51.064;7.028;2023-06-10T11:43:22;100571.19;;;30.23;30.95
4834;BME280;12895;51.064;7.028;2023-06-10T11:46:07;100569.59;;;30.20;30.29
4834;BME280;12895;51.064;7.028;2023-06-10T11:48:54;100566.84;;;30.11;29.73
4834;BME280;12895;51.064;7.028;2023-06-10T11:51:40;100563.78;;;30.41;31.52
4834;BME280;12895;51.064;7.028;2023-06-10T11:54:32;100555.28;;;31.10;31.23
4834;BME280;12895;51.064;7.028;2023-06-10T11:57:18;100554.53;;;31.69;29.61
4834;BME280;12895;51.064;7.028;2023-06-10T12:00:06;100553.97;;;32.09;30.27
4834;BME280;12895;51.064;7.028;2023-06-10T12:02:56;100548.34;;;32.36;29.36
4834;BME280;12895;51.064;7.028;2023-06-10T12:05:57;100545.84;;;32.69;29.22
4834;BME280;12895;51.064;7.028;2023-06-10T12:08:43;100541.00;;;32.85;27.68
4834;BME280;12895;51.064;7.028;2023-06-10T12:11:29;100539.94;;;32.92;27.51
4834;BME280;12895;51.064;7.028;2023-06-10T12:14:14;100534.44;;;32.96;25.61
4834;BME280;12895;51.064;7.028;2023-06-10T12:17:00;100535.91;;;32.97;25.58
4834;BME280;12895;51.064;7.028;2023-06-10T12:19:46;100536.78;;;32.34;26.34
4834;BME280;12895;51.064;7.028;2023-06-10T12:22:36;100539.09;;;31.99;27.16
4834;BME280;12895;51.064;7.028;2023-06-10T12:25:25;100531.50;;;31.67;28.36
4834;BME280;12895;51.064;7.028;2023-06-10T12:28:10;100531.91;;;31.14;31.40
4834;BME280;12895;51.064;7.028;2023-06-10T12:31:06;100535.56;;;31.14;32.77
4834;BME280;12895;51.064;7.028;2023-06-10T12:34:07;100535.56;;;31.14;32.75
4834;BME280;12895;51.064;7.028;2023-06-10T12:36:53;100535.91;;;31.20;32.80
4834;BME280;12895;51.064;7.028;2023-06-10T12:39:38;100534.19;;;31.15;33.73
4834;BME280;12895;51.064;7.028;2023-06-10T12:42:23;100534.34;;;31.42;32.63
4834;BME280;12895;51.064;7.028;2023-06-10T12:45:10;100528.25;;;31.84;32.26
4834;BME280;12895;51.064;7.028;2023-06-10T12:48:06;100528.91;;;31.96;31.82
4834;BME280;12895;51.064;7.028;2023-06-10T12:50:55;100520.56;;;32.25;29.56
4834;BME280;12895;51.064;7.028;2023-06-10T12:53:41;100518.03;;;31.93;29.93
4834;BME280;12895;51.064;7.028;2023-06-10T12:56:27;100520.00;;;31.90;29.89
4834;BME280;12895;51.064;7.028;2023-06-10T12:59:12;100509.38;;;31.79;28.02
4834;BME280;12895;51.064;7.028;2023-06-10T13:01:58;100515.97;;;31.45;31.92
4834;BME280;12895;51.064;7.028;2023-06-10T13:04:44;100523.78;;;30.85;29.10
4834;BME280;12895;51.064;7.028;2023-06-10T13:07:30;100504.06;;;30.43;31.26
4834;BME280;12895;51.064;7.028;2023-06-10T13:10:17;100522.38;;;30.40;29.89
4834;BME280;12895;51.064;7.028;2023-06-10T13:13:03;100518.56;;;30.47;29.69
4834;BME280;12895;51.064;7.028;2023-06-10T13:15:51;100514.22;;;30.92;30.37
4834;BME280;12895;51.064;7.028;2023-06-10T13:18:37;100501.13;;;31.24;29.55
4834;BME280;12895;51.064;7.028;2023-06-10T13:21:22;100499.19;;;31.76;29.87
4834;BME280;12895;51.064;7.028;2023-06-10T13:24:09;100490.41;;;32.11;26.77
4834;BME280;12895;51.064;7.028;2023-06-10T13:26:54;100482.03;;;32.53;23.82
4834;BME280;12895;51.064;7.028;2023-06-10T13:29:40;100488.72;;;32.84;26.85
4834;BME280;12895;51.064;7.028;2023-06-10T13:32:26;100486.13;;;33.17;24.78
4834;BME280;12895;51.064;7.028;2023-06-10T13:35:11;100494.88;;;32.92;25.38
4834;BME280;12895;51.064;7.028;2023-06-10T13:37:56;100491.03;;;32.47;25.45
4834;BME280;12895;51.064;7.028;2023-06-10T13:40:42;100492.19;;;32.04;24.92
4834;BME280;12895;51.064;7.028;2023-06-10T13:43:28;100494.88;;;31.39;26.00
4834;BME280;12895;51.064;7.028;2023-06-10T13:46:14;100496.38;;;31.28;26.72
4834;BME280;12895;51.064;7.028;2023-06-10T13:49:00;100493.94;;;31.11;27.63
4834;BME280;12895;51.064;7.028;2023-06-10T13:51:45;100494.69;;;31.00;28.60
4834;BME280;12895;51.064;7.028;2023-06-10T13:54:30;100490.78;;;30.82;25.59
4834;BME280;12895;51.064;7.028;2023-06-10T13:57:17;100496.22;;;30.90;26.17
4834;BME280;12895;51.064;7.028;2023-06-10T14:00:03;100489.44;;;31.56;26.96
4834;BME280;12895;51.064;7.028;2023-06-10T14:02:48;100485.88;;;32.19;25.05
4834;BME280;12895;51.064;7.028;2023-06-10T14:05:34;100488.66;;;31.92;25.63
4834;BME280;12895;51.064;7.028;2023-06-10T14:08:19;100480.31;;;32.21;28.48
4834;BME280;12895;51.064;7.028;2023-06-10T14:11:06;100488.00;;;32.84;26.11
4834;BME280;12895;51.064;7.028;2023-06-10T14:13:52;100483.47;;;33.93;23.96
4834;BME280;12895;51.064;7.028;2023-06-10T14:16:40;100488.72;;;35.74;21.25
4834;BME280;12895;51.064;7.028;2023-06-10T14:19:26;100489.59;;;37.97;18.92
4834;BME280;12895;51.064;7.028;2023-06-10T14:22:11;100479.94;;;39.39;17.63
4834;BME280;12895;51.064;7.028;2023-06-10T14:24:56;100472.94;;;40.09;17.10
4834;BME280;12895;51.064;7.028;2023-06-10T14:27:41;100478.91;;;41.28;15.58
4834;BME280;12895;51.064;7.028;2023-06-10T14:30:28;100483.31;;;42.22;14.52
4834;BME280;12895;51.064;7.028;2023-06-10T14:33:13;100478.88;;;42.74;14.76
4834;BME280;12895;51.064;7.028;2023-06-10T14:35:59;100477.91;;;43.21;15.01
4834;BME280;12895;51.064;7.028;2023-06-10T14:38:44;100478.88;;;43.45;13.64
4834;BME280;12895;51.064;7.028;2023-06-10T14:41:31;100473.22;;;43.67;14.10
4834;BME280;12895;51.064;7.028;2023-06-10T14:44:16;100472.78;;;44.13;13.38
4834;BME280;12895;51.064;7.028;2023-06-10T14:47:03;100472.16;;;44.40;14.74